createdAt,value
2022-11-27T00:01:29.494Z,5.10
2022-11-27T00:03:58.355Z,5.10
2022-11-27T00:06:29.056Z,5.00
2022-11-27T00:09:00.024Z,5.00
2022-11-27T00:11:30.744Z,5.00
2022-11-27T00:14:06.341Z,4.90
2022-11-27T00:16:35.376Z,4.90
2022-11-27T00:19:08.300Z,4.90
2022-11-27T00:21:38.679Z,4.90
2022-11-27T00:24:10.684Z,4.90
2022-11-27T00:26:43.190Z,4.90
2022-11-27T00:29:14.519Z,4.80
2022-11-27T00:31:46.563Z,4.80
2022-11-27T00:34:15.511Z,4.80
2022-11-27T00:36:49.147Z,4.90
2022-11-27T00:39:25.391Z,4.80
2022-11-27T00:41:54.284Z,4.80
2022-11-27T00:44:23.593Z,4.80
2022-11-27T00:46:52.843Z,4.80
2022-11-27T00:49:22.484Z,4.70
2022-11-27T00:51:53.033Z,4.70
2022-11-27T00:54:23.292Z,4.70
2022-11-27T00:56:59.762Z,4.70
2022-11-27T00:59:29.817Z,4.70
2022-11-27T01:01:58.585Z,4.70
2022-11-27T01:07:14.361Z,4.70
2022-11-27T01:09:45.027Z,4.70
2022-11-27T01:12:16.794Z,4.70
2022-11-27T01:14:45.636Z,4.70
2022-11-27T01:17:14.985Z,4.70
2022-11-27T01:19:44.376Z,4.70
2022-11-27T01:22:13.040Z,4.70
2022-11-27T01:24:46.197Z,4.70
2022-11-27T01:27:21.341Z,4.70
2022-11-27T01:29:50.289Z,4.80
2022-11-27T01:32:19.461Z,4.70
2022-11-27T01:34:50.253Z,4.80
2022-11-27T01:37:19.521Z,4.80
2022-11-27T01:39:48.397Z,4.80
2022-11-27T01:42:21.050Z,4.80
2022-11-27T01:44:56.317Z,4.80
2022-11-27T01:47:45.973Z,4.80
2022-11-27T01:50:20.146Z,4.80
2022-11-27T01:53:02.177Z,4.80
2022-11-27T01:55:40.012Z,4.80
2022-11-27T01:58:12.451Z,4.80
2022-11-27T02:00:42.225Z,4.80
2022-11-27T02:03:13.951Z,4.90
2022-11-27T02:05:43.736Z,4.90
2022-11-27T02:08:14.763Z,4.90
2022-11-27T02:10:50.730Z,4.90
2022-11-27T02:13:40.000Z,4.90
2022-11-27T02:16:18.500Z,4.80
2022-11-27T02:18:55.790Z,4.70
2022-11-27T02:21:33.122Z,4.70
2022-11-27T02:24:28.770Z,4.70
2022-11-27T02:27:39.889Z,4.70
2022-11-27T02:30:20.412Z,4.70
2022-11-27T02:32:54.554Z,4.70
2022-11-27T02:35:32.086Z,4.60
2022-11-27T02:38:11.767Z,4.60
2022-11-27T02:40:52.630Z,4.60
2022-11-27T02:43:28.207Z,4.70
2022-11-27T02:46:00.691Z,4.60
2022-11-27T02:48:35.329Z,4.60
2022-11-27T02:51:06.432Z,4.60
2022-11-27T02:53:39.443Z,4.60
2022-11-27T02:56:13.687Z,4.50
2022-11-27T02:58:43.523Z,4.60
2022-11-27T03:01:23.904Z,4.50
2022-11-27T03:03:56.563Z,4.50
2022-11-27T03:06:41.403Z,4.50
2022-11-27T03:09:15.132Z,4.60
2022-11-27T03:11:44.542Z,4.60
2022-11-27T03:14:15.371Z,4.60
2022-11-27T03:16:58.211Z,4.70
2022-11-27T03:19:31.380Z,4.70
2022-11-27T03:22:01.608Z,4.70
2022-11-27T03:24:32.778Z,4.80
2022-11-27T03:27:02.009Z,4.90
2022-11-27T03:29:36.249Z,4.90
2022-11-27T03:32:07.323Z,4.90
2022-11-27T03:34:36.772Z,4.90
2022-11-27T03:37:06.353Z,4.90
2022-11-27T03:39:35.786Z,5.00
2022-11-27T03:42:16.399Z,5.00
2022-11-27T03:44:53.335Z,5.00
2022-11-27T03:47:36.451Z,5.00
2022-11-27T03:50:21.716Z,5.00
2022-11-27T03:53:00.333Z,5.00
2022-11-27T03:55:36.003Z,5.10
2022-11-27T03:58:09.186Z,5.10
2022-11-27T04:00:43.095Z,5.10
2022-11-27T04:03:14.637Z,5.10
2022-11-27T04:05:43.502Z,5.20
2022-11-27T04:08:12.309Z,5.10
2022-11-27T04:10:41.643Z,5.20
2022-11-27T04:13:10.730Z,5.20
2022-11-27T04:15:39.609Z,5.20
2022-11-27T04:18:09.073Z,5.20
2022-11-27T04:20:39.190Z,5.20
2022-11-27T04:23:07.902Z,5.30
2022-11-27T04:25:36.685Z,5.20
2022-11-27T04:28:05.279Z,5.20
2022-11-27T04:30:34.010Z,5.30
2022-11-27T04:33:02.837Z,5.30
2022-11-27T04:35:31.677Z,5.30
2022-11-27T04:38:02.016Z,5.30
2022-11-27T04:41:08.210Z,5.30
2022-11-27T04:43:38.000Z,5.40
2022-11-27T04:46:07.086Z,5.30
2022-11-27T04:48:37.727Z,5.30
2022-11-27T04:51:06.742Z,5.30
2022-11-27T04:53:40.625Z,5.30
2022-11-27T04:56:13.875Z,5.40
2022-11-27T04:58:42.525Z,5.40
2022-11-27T05:01:12.023Z,5.40
2022-11-27T05:03:40.726Z,5.40
2022-11-27T05:06:12.324Z,5.40
2022-11-27T05:08:42.451Z,5.40
2022-11-27T05:11:18.850Z,5.40
2022-11-27T05:13:49.214Z,5.40
2022-11-27T05:16:18.016Z,5.40
2022-11-27T05:18:46.711Z,5.40
2022-11-27T05:21:15.414Z,5.40
2022-11-27T05:23:45.447Z,5.40
2022-11-27T05:26:14.658Z,5.50
2022-11-27T05:28:43.415Z,5.50
2022-11-27T05:31:12.815Z,5.50
2022-11-27T05:33:41.817Z,5.40
2022-11-27T05:36:11.025Z,5.40
2022-11-27T05:38:44.557Z,5.40
2022-11-27T05:41:14.673Z,5.50
2022-11-27T05:43:43.988Z,5.50
2022-11-27T05:46:15.653Z,5.50
2022-11-27T05:49:21.378Z,5.50
2022-11-27T05:51:52.137Z,5.50
2022-11-27T05:54:20.782Z,5.50
2022-11-27T05:56:50.901Z,5.50
2022-11-27T05:59:19.735Z,5.50
2022-11-27T06:01:49.774Z,5.50
2022-11-27T06:04:18.812Z,5.50
2022-11-27T06:06:47.487Z,5.50
2022-11-27T06:09:16.296Z,5.50
2022-11-27T06:11:44.898Z,5.60
2022-11-27T06:14:15.114Z,5.60
2022-11-27T06:16:43.914Z,5.60
2022-11-27T06:19:12.662Z,5.60
2022-11-27T06:21:46.641Z,5.60
2022-11-27T06:24:15.416Z,5.60
2022-11-27T06:26:44.120Z,5.60
2022-11-27T06:29:14.176Z,5.60
2022-11-27T06:31:43.407Z,5.60
2022-11-27T06:34:13.622Z,5.60
2022-11-27T06:36:42.990Z,5.70
2022-11-27T06:39:12.917Z,5.70
2022-11-27T06:41:42.491Z,5.70
2022-11-27T06:44:15.374Z,5.70
2022-11-27T06:46:44.180Z,5.70
2022-11-27T06:49:12.860Z,5.70
2022-11-27T06:51:42.006Z,5.70
2022-11-27T06:54:11.570Z,5.70
2022-11-27T06:56:40.368Z,5.70
2022-11-27T06:59:09.858Z,5.70
2022-11-27T07:01:40.218Z,5.70
2022-11-27T07:04:14.168Z,5.70
2022-11-27T07:06:43.969Z,5.80
2022-11-27T07:09:13.412Z,5.70
2022-11-27T07:11:42.363Z,5.70
2022-11-27T07:14:15.873Z,5.80
2022-11-27T07:16:46.994Z,5.80
2022-11-27T07:19:16.034Z,5.80
2022-11-27T07:21:48.795Z,5.80
2022-11-27T07:24:20.649Z,5.80
2022-11-27T07:26:49.957Z,5.80
2022-11-27T07:29:18.789Z,5.80
2022-11-27T07:31:51.500Z,5.90
2022-11-27T07:34:21.922Z,5.80
2022-11-27T07:36:51.294Z,5.90
2022-11-27T07:39:39.513Z,5.80
2022-11-27T07:42:36.787Z,5.80
2022-11-27T07:44:57.811Z,5.80
2022-11-27T07:47:27.848Z,5.80
2022-11-27T07:49:58.533Z,5.80
2022-11-27T07:52:28.641Z,5.80
2022-11-27T07:54:57.296Z,5.80
2022-11-27T07:57:26.042Z,5.80
2022-11-27T07:59:54.684Z,5.80
2022-11-27T08:02:23.254Z,5.80
2022-11-27T08:04:53.280Z,5.80
2022-11-27T08:07:21.998Z,5.90
2022-11-27T08:09:50.822Z,5.80
2022-11-27T08:12:19.539Z,5.90
2022-11-27T08:14:48.135Z,5.90
2022-11-27T08:17:16.853Z,5.90
2022-11-27T08:19:45.517Z,5.90
2022-11-27T08:22:17.026Z,5.90
2022-11-27T08:24:46.080Z,5.90
2022-11-27T08:27:15.224Z,5.90
2022-11-27T08:29:44.060Z,5.90
2022-11-27T08:32:12.732Z,5.90
2022-11-27T08:34:43.843Z,5.90
2022-11-27T08:37:12.540Z,5.90
2022-11-27T08:39:43.118Z,6.00
2022-11-27T08:42:11.981Z,6.00
2022-11-27T08:44:43.446Z,6.00
2022-11-27T08:47:12.121Z,5.90
2022-11-27T08:49:45.904Z,6.00
2022-11-27T08:52:15.289Z,6.00
2022-11-27T08:54:45.280Z,6.00
2022-11-27T08:57:13.973Z,5.90
2022-11-27T08:59:42.500Z,6.00
2022-11-27T09:02:12.821Z,5.90
2022-11-27T09:04:42.360Z,6.00
2022-11-27T09:07:14.312Z,5.90
2022-11-27T09:09:44.881Z,5.90
2022-11-27T09:12:13.861Z,5.90
2022-11-27T09:14:42.751Z,5.90
2022-11-27T09:17:11.774Z,5.90
2022-11-27T09:19:40.401Z,5.90
2022-11-27T09:22:09.091Z,6.00
2022-11-27T09:24:38.161Z,6.00
2022-11-27T09:27:11.080Z,6.00
2022-11-27T09:29:43.492Z,6.00
2022-11-27T09:32:12.090Z,6.00
2022-11-27T09:34:41.520Z,6.00
2022-11-27T09:37:10.573Z,6.00
2022-11-27T09:39:40.205Z,6.00
2022-11-27T09:42:41.481Z,6.00
2022-11-27T09:45:15.095Z,6.00
2022-11-27T09:47:50.202Z,6.00
2022-11-27T09:50:22.331Z,6.00
2022-11-27T09:52:54.460Z,6.10
2022-11-27T09:55:27.289Z,6.10
2022-11-27T09:58:03.451Z,6.10
2022-11-27T10:00:32.092Z,6.10
2022-11-27T10:03:01.519Z,6.10
2022-11-27T10:05:39.155Z,6.10
2022-11-27T10:08:24.102Z,6.20
2022-11-27T10:11:06.905Z,6.10
2022-11-27T10:13:48.757Z,6.20
2022-11-27T10:16:26.370Z,6.20
2022-11-27T10:18:58.577Z,6.30
2022-11-27T10:21:39.169Z,6.30
2022-11-27T10:24:18.942Z,6.30
2022-11-27T10:26:49.886Z,6.40
2022-11-27T10:29:33.090Z,6.40
2022-11-27T10:32:06.144Z,6.50
2022-11-27T10:34:42.764Z,6.50
2022-11-27T10:37:18.690Z,6.50
2022-11-27T10:39:51.800Z,6.50
2022-11-27T10:42:26.064Z,6.60
2022-11-27T10:45:01.641Z,6.60
2022-11-27T10:47:33.716Z,6.60
2022-11-27T10:50:02.547Z,6.60
2022-11-27T10:52:31.176Z,6.60
2022-11-27T10:55:03.920Z,6.60
2022-11-27T10:57:58.722Z,6.60
2022-11-27T11:00:28.842Z,6.60
2022-11-27T11:03:04.792Z,6.60
2022-11-27T11:05:56.829Z,6.70
2022-11-27T11:08:25.326Z,6.60
2022-11-27T11:10:56.009Z,6.70
2022-11-27T11:13:28.032Z,6.70
2022-11-27T11:16:01.337Z,6.70
2022-11-27T11:18:32.355Z,6.70
2022-11-27T11:21:03.445Z,6.70
2022-11-27T11:23:35.072Z,6.70
2022-11-27T11:26:08.061Z,6.70
2022-11-27T11:28:48.548Z,6.70
2022-11-27T11:31:22.099Z,6.80
2022-11-27T11:33:54.265Z,6.80
2022-11-27T11:36:23.091Z,6.90
2022-11-27T11:38:52.976Z,6.90
2022-11-27T11:41:23.814Z,6.90
2022-11-27T11:43:58.504Z,6.90
2022-11-27T11:46:32.100Z,7.00
2022-11-27T11:49:03.959Z,6.90
2022-11-27T11:52:01.154Z,6.90
2022-11-27T11:54:49.024Z,6.90
2022-11-27T11:57:44.570Z,7.00
2022-11-27T12:00:16.937Z,7.00
2022-11-27T12:03:14.332Z,7.00
2022-11-27T12:05:57.175Z,7.10
2022-11-27T12:08:39.416Z,7.10
2022-11-27T12:11:13.579Z,7.20
2022-11-27T12:13:53.165Z,7.20
2022-11-27T12:16:30.939Z,7.30
2022-11-27T12:19:23.163Z,7.30
2022-11-27T12:22:02.860Z,7.30
2022-11-27T12:24:43.301Z,7.30
2022-11-27T12:27:23.849Z,7.40
2022-11-27T12:30:14.962Z,7.30
2022-11-27T12:33:04.455Z,7.30
2022-11-27T12:35:36.912Z,7.30
2022-11-27T12:38:25.656Z,7.30
2022-11-27T12:41:12.746Z,7.30
2022-11-27T12:43:48.804Z,7.30
2022-11-27T12:46:22.723Z,7.30
2022-11-27T12:48:56.451Z,7.30
2022-11-27T12:51:30.580Z,7.30
2022-11-27T12:54:03.617Z,7.30
2022-11-27T12:56:37.229Z,7.30
2022-11-27T12:59:12.396Z,7.30
2022-11-27T13:01:44.615Z,7.40
2022-11-27T13:04:22.661Z,7.40
2022-11-27T13:06:59.587Z,7.40
2022-11-27T13:09:38.946Z,7.40
2022-11-27T13:12:08.876Z,7.40
2022-11-27T13:14:40.295Z,7.40
2022-11-27T13:17:16.241Z,7.30
2022-11-27T13:19:47.247Z,7.30
2022-11-27T13:22:27.492Z,7.30
2022-11-27T13:24:56.962Z,7.30
2022-11-27T13:27:28.154Z,7.30
2022-11-27T13:30:00.137Z,7.40
2022-11-27T13:32:31.589Z,7.30
2022-11-27T13:35:03.810Z,7.40
2022-11-27T13:37:37.608Z,7.30
2022-11-27T13:40:08.958Z,7.40
2022-11-27T13:42:43.670Z,7.30
2022-11-27T13:45:22.876Z,7.30
2022-11-27T13:47:52.454Z,7.40
2022-11-27T13:50:26.916Z,7.30
2022-11-27T13:53:04.393Z,7.30
2022-11-27T13:55:35.172Z,7.40
2022-11-27T13:58:06.040Z,7.30
2022-11-27T14:00:37.615Z,7.30
2022-11-27T14:03:07.216Z,7.30
2022-11-27T14:05:40.504Z,7.30
2022-11-27T14:08:21.936Z,7.30
2022-11-27T14:10:54.761Z,7.30
2022-11-27T14:13:27.620Z,7.30
2022-11-27T14:16:02.689Z,7.30
2022-11-27T14:18:32.284Z,7.30
2022-11-27T14:21:02.902Z,7.30
2022-11-27T14:23:35.517Z,7.30
2022-11-27T14:26:20.038Z,7.30
2022-11-27T14:28:52.948Z,7.30
2022-11-27T14:31:29.555Z,7.30
2022-11-27T14:34:16.360Z,7.30
2022-11-27T14:36:47.040Z,7.20
2022-11-27T14:39:24.460Z,7.20
2022-11-27T14:42:03.412Z,7.20
2022-11-27T14:44:33.219Z,7.20
2022-11-27T14:47:04.212Z,7.20
2022-11-27T14:49:34.051Z,7.20
2022-11-27T14:52:07.807Z,7.20
2022-11-27T14:54:41.033Z,7.20
2022-11-27T14:57:17.883Z,7.20
2022-11-27T14:59:46.519Z,7.10
2022-11-27T15:02:24.643Z,7.10
2022-11-27T15:05:05.199Z,7.10
2022-11-27T15:07:44.011Z,7.10
2022-11-27T15:10:28.830Z,7.10
2022-11-27T15:12:58.879Z,7.10
2022-11-27T15:15:29.800Z,7.10
2022-11-27T15:18:01.837Z,7.10
2022-11-27T15:20:38.826Z,7.10
2022-11-27T15:23:16.367Z,7.10
2022-11-27T15:25:48.759Z,7.00
2022-11-27T15:28:34.997Z,7.00
2022-11-27T15:31:05.308Z,7.10
2022-11-27T15:33:35.161Z,7.10
2022-11-27T15:36:17.447Z,7.10
2022-11-27T15:38:46.552Z,7.00
2022-11-27T15:41:23.883Z,7.00
2022-11-27T15:43:53.195Z,7.00
2022-11-27T15:46:27.884Z,7.00
2022-11-27T15:48:56.455Z,7.00
2022-11-27T15:51:25.032Z,7.00
2022-11-27T15:53:53.597Z,7.00
2022-11-27T15:56:23.516Z,7.00
2022-11-27T15:58:52.320Z,7.00
2022-11-27T16:01:20.980Z,7.00
2022-11-27T16:03:49.601Z,7.00
2022-11-27T16:06:20.822Z,7.00
2022-11-27T16:08:49.508Z,7.00
2022-11-27T16:11:19.737Z,7.00
2022-11-27T16:13:49.699Z,6.90
2022-11-27T16:16:18.983Z,7.00
2022-11-27T16:18:47.609Z,7.00
2022-11-27T16:21:17.812Z,7.00
2022-11-27T16:23:46.358Z,6.90
2022-11-27T16:26:16.082Z,6.90
2022-11-27T16:28:44.889Z,7.00
2022-11-27T16:31:15.193Z,6.90
2022-11-27T16:33:43.853Z,6.90
2022-11-27T16:36:15.013Z,7.00
2022-11-27T16:38:44.461Z,7.00
2022-11-27T16:41:14.961Z,7.00
2022-11-27T16:43:45.717Z,7.00
2022-11-27T16:46:18.118Z,7.10
2022-11-27T16:48:48.224Z,7.10
2022-11-27T16:51:19.483Z,7.10
2022-11-27T16:53:50.192Z,7.10
2022-11-27T16:56:20.818Z,7.10
2022-11-27T16:58:49.796Z,7.10
2022-11-27T17:01:21.921Z,7.20
2022-11-27T17:03:50.943Z,7.20
2022-11-27T17:06:22.237Z,7.20
2022-11-27T17:08:50.895Z,7.20
2022-11-27T17:11:21.391Z,7.30
2022-11-27T17:13:50.741Z,7.20
2022-11-27T17:16:21.652Z,7.30
2022-11-27T17:18:50.294Z,7.30
2022-11-27T17:21:24.334Z,7.30
2022-11-27T17:23:55.050Z,7.30
2022-11-27T17:26:25.061Z,7.30
2022-11-27T17:28:56.300Z,7.30
2022-11-27T17:31:30.852Z,7.30
2022-11-27T17:33:59.905Z,7.30
2022-11-27T17:36:35.193Z,7.30
2022-11-27T17:39:06.850Z,7.20
2022-11-27T17:41:35.971Z,7.20
2022-11-27T17:44:05.764Z,7.20
2022-11-27T17:46:36.957Z,7.20
2022-11-27T17:49:07.632Z,7.20
2022-11-27T17:51:37.317Z,7.20
2022-11-27T17:54:06.446Z,7.20
2022-11-27T17:56:36.245Z,7.10
2022-11-27T17:59:05.132Z,7.20
2022-11-27T18:01:35.136Z,7.20
2022-11-27T18:04:05.429Z,7.20
2022-11-27T18:06:36.050Z,7.10
2022-11-27T18:09:05.530Z,7.10
2022-11-27T18:11:35.091Z,7.10
2022-11-27T18:14:03.747Z,7.10
2022-11-27T18:16:36.892Z,7.10
2022-11-27T18:19:07.224Z,7.10
2022-11-27T18:21:36.740Z,7.10
2022-11-27T18:24:25.294Z,7.10
2022-11-27T18:27:10.554Z,7.10
2022-11-27T18:29:42.290Z,7.10
2022-11-27T18:32:14.044Z,7.00
2022-11-27T18:34:42.879Z,7.00
2022-11-27T18:37:15.009Z,7.00
2022-11-27T18:39:45.429Z,7.10
2022-11-27T18:42:14.467Z,7.00
2022-11-27T18:44:45.130Z,7.10
2022-11-27T18:47:16.366Z,7.00
2022-11-27T18:49:45.267Z,7.00
2022-11-27T18:52:14.073Z,7.00
2022-11-27T18:54:42.648Z,7.00
2022-11-27T18:57:14.109Z,7.00
2022-11-27T18:59:45.061Z,7.00
2022-11-27T19:02:15.545Z,6.90
2022-11-27T19:04:44.937Z,7.00
2022-11-27T19:07:13.812Z,6.90
2022-11-27T19:09:42.780Z,6.90
2022-11-27T19:12:12.339Z,6.90
2022-11-27T19:14:44.280Z,6.90
2022-11-27T19:17:13.143Z,6.90
2022-11-27T19:19:54.153Z,6.90
2022-11-27T19:22:31.973Z,6.90
2022-11-27T19:25:00.651Z,6.80
2022-11-27T19:27:29.248Z,6.80
2022-11-27T19:29:57.920Z,6.80
2022-11-27T19:32:26.521Z,6.80
2022-11-27T19:34:56.524Z,6.80
2022-11-27T19:37:34.519Z,6.80
2022-11-27T19:40:04.024Z,6.80
2022-11-27T19:42:33.014Z,6.80
2022-11-27T19:45:01.676Z,6.80
2022-11-27T19:47:30.255Z,6.70
2022-11-27T19:50:00.231Z,6.70
2022-11-27T19:52:29.069Z,6.70
2022-11-27T19:54:57.700Z,6.70
2022-11-27T19:57:26.405Z,6.70
2022-11-27T19:59:55.007Z,6.70
2022-11-27T20:02:23.702Z,6.70
2022-11-27T20:04:53.946Z,6.70
2022-11-27T20:07:24.131Z,6.70
2022-11-27T20:09:53.238Z,6.70
2022-11-27T20:12:21.772Z,6.70
2022-11-27T20:14:50.485Z,6.70
2022-11-27T20:17:19.310Z,6.70
2022-11-27T20:19:47.878Z,6.70
2022-11-27T20:22:16.429Z,6.60
2022-11-27T20:25:04.495Z,6.60
2022-11-27T20:27:36.828Z,6.60
2022-11-27T20:30:07.280Z,6.60
2022-11-27T20:32:36.058Z,6.60
2022-11-27T20:35:04.760Z,6.60
2022-11-27T20:37:34.078Z,6.60
2022-11-27T20:40:04.292Z,6.60
2022-11-27T20:42:33.146Z,6.60
2022-11-27T20:45:05.089Z,6.60
2022-11-27T20:47:33.805Z,6.60
2022-11-27T20:50:03.028Z,6.60
2022-11-27T20:52:31.660Z,6.60
2022-11-27T20:55:00.335Z,6.60
2022-11-27T20:57:30.290Z,6.60
2022-11-27T20:59:58.940Z,6.50
2022-11-27T21:02:27.611Z,6.60
2022-11-27T21:04:56.346Z,6.60
2022-11-27T21:07:25.145Z,6.60
2022-11-27T21:09:56.634Z,6.60
2022-11-27T21:12:25.153Z,6.60
2022-11-27T21:14:55.180Z,6.60
2022-11-27T21:17:23.913Z,6.60
2022-11-27T21:19:52.894Z,6.60
2022-11-27T21:22:21.684Z,6.50
2022-11-27T21:24:54.050Z,6.50
2022-11-27T21:27:22.815Z,6.60
2022-11-27T21:29:51.405Z,6.50
2022-11-27T21:32:23.518Z,6.60
2022-11-27T21:34:52.205Z,6.60
2022-11-27T21:37:20.915Z,6.50
2022-11-27T21:39:49.622Z,6.50
2022-11-27T21:42:18.271Z,6.50
2022-11-27T21:44:47.006Z,6.50
2022-11-27T21:47:15.564Z,6.50
2022-11-27T21:49:45.571Z,6.50
2022-11-27T21:52:14.301Z,6.50
2022-11-27T21:54:43.071Z,6.50
2022-11-27T21:57:11.907Z,6.50
2022-11-27T21:59:41.208Z,6.50
2022-11-27T22:02:12.249Z,6.50
2022-11-27T22:04:45.276Z,6.50
2022-11-27T22:07:14.010Z,6.50
2022-11-27T22:09:42.701Z,6.50
2022-11-27T22:12:11.699Z,6.50
2022-11-27T22:14:40.597Z,6.50
2022-11-27T22:17:10.131Z,6.50
2022-11-27T22:19:42.389Z,6.50
2022-11-27T22:22:12.454Z,6.50
2022-11-27T22:24:41.663Z,6.50
2022-11-27T22:27:10.499Z,6.50
2022-11-27T22:29:39.275Z,6.50
2022-11-27T22:32:07.992Z,6.50
2022-11-27T22:34:36.558Z,6.50
2022-11-27T22:37:06.221Z,6.50
2022-11-27T22:39:36.307Z,6.50
2022-11-27T22:42:05.016Z,6.50
2022-11-27T22:44:33.597Z,6.50
2022-11-27T22:47:02.157Z,6.50
2022-11-27T22:49:30.806Z,6.50
2022-11-27T22:51:59.641Z,6.50
2022-11-27T22:54:28.354Z,6.50
2022-11-27T22:56:58.258Z,6.50
2022-11-27T22:59:34.865Z,6.50
2022-11-27T23:02:04.284Z,6.50
2022-11-27T23:04:32.965Z,6.50
2022-11-27T23:07:01.990Z,6.50
2022-11-27T23:09:30.934Z,6.50
2022-11-27T23:12:01.004Z,6.50
2022-11-27T23:14:29.732Z,6.50
2022-11-27T23:16:58.476Z,6.50
2022-11-27T23:19:27.175Z,6.50
2022-11-27T23:21:55.797Z,6.50
2022-11-27T23:24:24.502Z,6.60
2022-11-27T23:26:53.119Z,6.60
2022-11-27T23:29:23.096Z,6.60
2022-11-27T23:31:51.858Z,6.60
2022-11-27T23:34:20.458Z,6.60
2022-11-27T23:36:49.094Z,6.60
2022-11-27T23:39:17.680Z,6.60
2022-11-27T23:41:48.313Z,6.60
2022-11-27T23:44:17.086Z,6.60
2022-11-27T23:46:48.119Z,6.60
2022-11-27T23:49:16.696Z,6.60
2022-11-27T23:51:45.340Z,6.60
2022-11-27T23:54:13.925Z,6.60
2022-11-27T23:56:43.185Z,6.60
2022-11-27T23:59:11.981Z,6.70
